Time;durP1;ratioP1;P1;durP2;ratioP2;P2;SDS_P1;SDS_P2;PMS_P1;PMS_P2;Temp;Humidity;BMP_temperature;BMP_pressure;BME280_temperature;BME280_humidity;BME280_pressure;Samples;Min_cycle;Max_cycle;Signal;HPM_P1;HPM_P2
2022/01/24 00:01:56;;;;;;;12.37;7.33;;;;;;;-4.76;100.00;101047.27;1746125;80;21010;-62
2022/01/24 00:04:25;;;;;;;11.80;6.85;;;;;;;-4.80;100.00;101054.67;1737658;82;21031;-62
2022/01/24 00:06:52;;;;;;;11.03;6.87;;;;;;;-4.82;100.00;101049.17;1731497;82;21070;-62
2022/01/24 00:09:18;;;;;;;12.43;6.97;;;;;;;-4.82;100.00;101047.35;1732408;82;20995;-62
2022/01/24 00:12:00;;;;;;;12.73;7.42;;;;;;;-4.90;100.00;101047.20;1727864;82;21257;-62
2022/01/24 00:17:09;;;;;;;12.35;7.28;;;;;;;-5.01;100.00;101067.27;1689789;83;21566;-62
2022/01/24 00:27:46;;;;;;;14.03;7.92;;;;;;;-5.15;100.00;101068.52;1693493;84;21164;-63
2022/01/24 00:30:14;;;;;;;13.50;7.05;;;;;;;-5.21;100.00;101073.03;1695973;84;21109;-62
2022/01/24 00:32:42;;;;;;;12.18;6.62;;;;;;;-5.26;100.00;101087.23;1703056;84;21147;-62
2022/01/24 00:35:10;;;;;;;14.38;7.12;;;;;;;-5.29;100.00;101090.16;1695422;84;21009;-62
2022/01/24 00:37:37;;;;;;;12.13;6.67;;;;;;;-5.31;100.00;101088.59;1693713;83;21516;-62
2022/01/24 00:40:05;;;;;;;;;;;;;;;-5.37;100.00;101083.36;1691979;84;21497;-62
2022/01/24 00:42:42;;;;;;;14.00;8.20;;;;;;;-5.40;100.00;101082.31;1689290;83;20270;-63
2022/01/24 00:45:12;;;;;;;16.73;9.23;;;;;;;-5.50;100.00;101087.25;1689016;84;20974;-62
2022/01/24 00:55:23;;;;;;;14.23;8.53;;;;;;;-5.66;100.00;101083.77;1689455;84;21587;-62
2022/01/24 00:57:50;;;;;;;15.30;8.68;;;;;;;-5.73;100.00;101087.45;1696030;84;21066;-62
2022/01/24 01:00:17;;;;;;;15.65;8.50;;;;;;;-5.75;100.00;101087.24;1667582;85;21082;-62
2022/01/24 01:02:44;;;;;;;14.78;8.20;;;;;;;-5.80;100.00;101085.47;1685589;83;21069;-62
2022/01/24 01:18:34;;;;;;;14.93;8.63;;;;;;;-6.05;100.00;101090.77;1663228;85;21082;-63
2022/01/24 01:23:30;;;;;;;15.28;9.10;;;;;;;-6.12;100.00;101091.79;1704939;83;21077;-63
2022/01/24 01:26:00;;;;;;;17.17;9.68;;;;;;;-6.15;100.00;101089.89;1677876;84;21092;-62
2022/01/24 01:28:28;;;;;;;14.05;8.40;;;;;;;-6.17;100.00;101090.52;1674617;85;21007;-63
2022/01/24 01:30:59;;;;;;;15.85;9.50;;;;;;;-6.19;100.00;101094.61;1676130;85;21463;-62
2022/01/24 01:34:20;;;;;;;13.95;7.95;;;;;;;-6.19;100.00;101098.59;1667744;85;21058;-63
2022/01/24 01:36:14;;;;;;;15.68;8.28;;;;;;;-6.28;100.00;101099.88;1642485;85;21082;-62
2022/01/24 01:53:16;;;;;;;19.35;10.13;;;;;;;-6.48;100.00;101100.73;1701430;83;21059;-63
2022/01/24 01:58:12;;;;;;;16.35;9.60;;;;;;;-6.70;100.00;101106.98;1680071;85;21159;-62
2022/01/24 02:00:45;;;;;;;11.40;6.40;;;;;;;-6.78;100.00;101103.65;1671000;84;21053;-62
2022/01/24 02:03:12;;;;;;;17.17;8.48;;;;;;;-6.83;100.00;101111.12;1669042;86;21056;-61
2022/01/24 02:05:39;;;;;;;;;;;;;;;-6.86;100.00;101102.11;1670102;86;21022;-61
2022/01/24 02:08:06;;;;;;;17.35;9.30;;;;;;;-6.84;100.00;101107.30;1670522;86;20435;-61
2022/01/24 02:10:35;;;;;;;12.82;7.37;;;;;;;-6.86;100.00;101106.56;1667694;85;21034;-61
2022/01/24 02:13:02;;;;;;;17.45;8.10;;;;;;;-6.92;100.00;101111.89;1670714;86;21112;-62
2022/01/24 02:15:42;;;;;;;19.57;9.35;;;;;;;-7.02;100.00;101108.33;1667173;85;21534;-61
2022/01/24 02:18:08;;;;;;;15.60;8.98;;;;;;;-7.08;100.00;101105.69;1667911;85;21049;-61
2022/01/24 02:21:26;;;;;;;15.15;9.13;;;;;;;-7.15;100.00;101112.92;1665991;85;21068;-61
2022/01/24 02:25:41;;;;;;;15.80;9.10;;;;;;;-7.24;100.00;101113.20;1666293;84;21066;-61
2022/01/24 02:28:11;;;;;;;15.55;7.80;;;;;;;-7.22;100.00;101121.84;1669426;85;21087;-62
2022/01/24 02:33:22;;;;;;;15.63;8.55;;;;;;;-7.33;100.00;101117.90;1670676;86;21446;-61
2022/01/24 02:35:48;;;;;;;15.75;8.30;;;;;;;-7.44;100.00;101111.34;1671276;84;21040;-62
2022/01/24 02:49:15;;;;;;;15.03;6.85;;;;;;;-7.66;100.00;101122.78;1666083;85;21058;-62
2022/01/24 02:51:48;;;;;;;17.73;9.50;;;;;;;-7.70;100.00;101113.89;1668144;86;21580;-61
2022/01/24 02:54:31;;;;;;;17.52;8.53;;;;;;;-7.81;100.00;101116.53;1668630;85;21499;-61
2022/01/24 02:56:57;;;;;;;17.23;9.33;;;;;;;-7.87;100.00;101128.45;1668313;85;21113;-62
2022/01/24 02:59:24;;;;;;;;;;;;;;;-7.91;100.00;101124.83;1665238;85;21081;-62
2022/01/24 03:01:50;;;;;;;15.25;7.85;;;;;;;-7.93;100.00;101131.55;1669601;84;20481;-62
2022/01/24 03:04:17;;;;;;;16.12;8.65;;;;;;;-8.01;100.00;101132.65;1660381;85;21639;-62
2022/01/24 03:06:45;;;;;;;14.68;8.75;;;;;;;-7.99;100.00;101137.32;1670575;86;21606;-62
2022/01/24 03:09:12;;;;;;;18.02;8.40;;;;;;;-8.01;100.00;101130.00;1663828;86;21099;-62
2022/01/24 03:12:43;;;;;;;;;;;;;;;-8.06;100.00;101130.35;1665327;86;21153;-62
2022/01/24 03:14:20;;;;;;;14.68;5.20;;;;;;;-8.25;100.00;101124.79;1649966;85;20108;-62
2022/01/24 03:16:47;;;;;;;14.93;7.72;;;;;;;-8.25;100.00;101124.79;1670716;85;21093;-62
2022/01/24 03:19:14;;;;;;;8.43;5.10;;;;;;;-8.31;100.00;101137.66;1669881;86;21052;-62
2022/01/24 03:21:43;;;;;;;14.35;7.87;;;;;;;-8.38;100.00;101137.77;1666926;84;21123;-62
2022/01/24 03:24:11;;;;;;;14.18;7.17;;;;;;;-8.51;100.00;101130.42;1665565;86;21616;-62
2022/01/24 03:26:38;;;;;;;11.10;5.50;;;;;;;-8.57;100.00;101132.56;1671815;84;21551;-62
2022/01/24 03:29:04;;;;;;;15.25;8.73;;;;;;;-8.64;100.00;101143.69;1669768;86;21072;-62
2022/01/24 03:31:32;;;;;;;13.00;7.45;;;;;;;-8.72;100.00;101152.22;1664503;85;21109;-61
2022/01/24 03:33:59;;;;;;;16.65;8.18;;;;;;;-8.72;100.00;101153.53;1665043;85;21046;-62
2022/01/24 03:36:25;;;;;;;15.68;8.40;;;;;;;-8.68;100.00;101158.92;1669125;86;21065;-62
2022/01/24 03:38:52;;;;;;;13.72;7.45;;;;;;;-8.69;100.00;101146.70;1667224;86;21081;-62
2022/01/24 03:41:18;;;;;;;13.88;7.53;;;;;;;-8.72;100.00;101154.00;1661081;83;21568;-62
2022/01/24 03:43:45;;;;;;;;;;;;;;;-8.79;100.00;101160.70;1673842;86;21020;-62
2022/01/24 03:48:53;;;;;;;15.35;7.30;;;;;;;-9.03;100.00;101159.36;1668320;86;21081;-61
2022/01/24 03:51:15;;;;;;;14.43;8.30;;;;;;;-9.07;100.00;101161.39;1662421;84;21076;-61
2022/01/24 03:53:42;;;;;;;;;;;;;;;-9.06;100.00;101166.19;1665092;85;21660;-62
2022/01/24 03:56:09;;;;;;;15.15;8.20;;;;;;;-9.02;100.00;101168.13;1683293;84;20098;-62
2022/01/24 03:58:35;;;;;;;;;;;;;;;-9.09;100.00;101170.38;1722289;82;21114;-61
2022/01/24 04:01:04;;;;;;;11.83;5.60;;;;;;;-9.09;100.00;101174.33;1728683;81;20397;-61
2022/01/24 04:03:32;;;;;;;15.55;9.03;;;;;;;-9.11;100.00;101172.30;1733400;82;20999;-62
2022/01/24 04:05:58;;;;;;;17.15;8.85;;;;;;;-9.11;100.00;101175.78;1736288;81;21059;-61
2022/01/24 04:08:25;;;;;;;16.15;9.40;;;;;;;-9.09;100.00;101179.61;1730808;82;21027;-62
2022/01/24 04:10:55;;;;;;;;;;;;;;;-9.07;100.00;101169.30;1735259;81;21064;-62
2022/01/24 04:13:29;;;;;;;16.65;8.53;;;;;;;-9.05;100.00;101171.84;1694040;84;20173;-62
2022/01/24 04:18:49;;;;;;;17.42;9.00;;;;;;;-9.03;100.00;101181.79;1694722;85;21036;-62
2022/01/24 04:21:30;;;;;;;20.23;10.68;;;;;;;-8.99;100.00;101177.98;1682886;83;21074;-63
2022/01/24 04:24:07;;;;;;;19.90;9.83;;;;;;;-8.94;100.00;101181.61;1689987;84;21063;-62
2022/01/24 04:26:31;;;;;;;18.80;9.53;;;;;;;-8.94;100.00;101186.41;1662998;85;21107;-62
2022/01/24 04:28:59;;;;;;;16.65;10.35;;;;;;;-8.93;100.00;101181.52;1695767;84;21034;-62
2022/01/24 04:31:25;;;;;;;18.37;9.30;;;;;;;-8.93;100.00;101186.79;1696679;83;21546;-62
2022/01/24 04:33:52;;;;;;;18.48;10.40;;;;;;;-8.94;100.00;101190.38;1698032;84;21054;-62
2022/01/24 04:36:20;;;;;;;18.95;8.83;;;;;;;-8.91;100.00;101185.34;1695312;83;21123;-63
2022/01/24 04:38:47;;;;;;;17.50;9.70;;;;;;;-8.91;100.00;101185.34;1703329;84;21046;-62
2022/01/24 04:41:24;;;;;;;13.20;8.03;;;;;;;-8.91;100.00;101178.74;1693081;83;21119;-63
2022/01/24 04:51:36;;;;;;;15.53;8.38;;;;;;;-8.95;100.00;101174.64;1673896;84;21049;-62
2022/01/24 04:56:32;;;;;;;15.68;8.50;;;;;;;-8.91;100.00;101179.59;1688348;83;21065;-62
2022/01/24 04:58:59;;;;;;;15.95;8.40;;;;;;;-8.92;100.00;101175.26;1671398;85;23159;-62
2022/01/24 05:01:25;;;;;;;13.75;6.45;;;;;;;-8.96;100.00;101168.52;1678920;85;21119;-62
2022/01/24 05:03:53;;;;;;;12.90;6.53;;;;;;;-9.00;100.00;101178.11;1682121;85;21039;-62
2022/01/24 05:06:19;;;;;;;15.63;8.48;;;;;;;-9.07;100.00;101183.47;1678582;85;21141;-63
2022/01/24 05:08:46;;;;;;;13.98;7.50;;;;;;;-9.13;100.00;101180.31;1678723;85;21663;-63
2022/01/24 05:11:22;;;;;;;16.12;7.87;;;;;;;-9.11;100.00;101185.48;1679023;85;21118;-62
2022/01/24 05:23:27;;;;;;;13.10;7.05;;;;;;;-9.28;100.00;101186.68;1724794;82;21091;-62
2022/01/24 05:24:25;;;;;;;13.15;7.17;;;;;;;-9.32;100.00;101198.91;1722786;82;21040;-62
2022/01/24 05:26:52;;;;;;;;;;;;;;;-9.36;100.00;101201.38;1731687;82;21543;-62
2022/01/24 05:29:18;;;;;;;13.65;6.75;;;;;;;-9.33;100.00;101203.80;1733074;82;20139;-62
2022/01/24 05:31:45;;;;;;;12.82;6.75;;;;;;;-9.38;100.00;101205.91;1721369;82;21515;-63
2022/01/24 05:34:11;;;;;;;13.05;7.17;;;;;;;-9.39;100.00;101212.16;1727255;82;21043;-63
2022/01/24 05:36:38;;;;;;;13.18;7.08;;;;;;;-9.36;100.00;101207.50;1700771;82;21002;-62
2022/01/24 05:39:05;;;;;;;13.85;6.37;;;;;;;-9.32;100.00;101206.34;1716567;82;21019;-62
2022/01/24 05:41:32;;;;;;;11.95;6.78;;;;;;;-9.35;100.00;101209.67;1733098;81;21051;-62
2022/01/24 05:43:59;;;;;;;14.73;7.40;;;;;;;-9.36;100.00;101217.20;1725329;82;21084;-63
2022/01/24 05:46:26;;;;;;;13.65;7.50;;;;;;;-9.33;100.00;101216.98;1725858;81;21087;-62
2022/01/24 05:48:52;;;;;;;13.13;7.33;;;;;;;-9.34;100.00;101217.45;1720003;82;21012;-62
2022/01/24 05:51:20;;;;;;;;;;;;;;;-9.38;100.00;101219.94;1726116;83;21051;-62
2022/01/24 05:53:47;;;;;;;12.98;5.95;;;;;;;-9.37;100.00;101230.86;1715541;82;20111;-62
2022/01/24 05:56:13;;;;;;;13.45;7.30;;;;;;;-9.37;100.00;101230.86;1707622;82;21023;-63
2022/01/24 05:58:40;;;;;;;15.32;7.30;;;;;;;-9.34;100.00;101239.87;1705023;82;21482;-63
2022/01/24 06:01:06;;;;;;;;;;;;;;;-9.41;100.00;101231.17;1744005;81;21052;-61
2022/01/24 06:03:33;;;;;;;13.10;6.25;;;;;;;-9.45;100.00;101238.46;1739648;82;20185;-63
2022/01/24 06:05:59;;;;;;;;;;;;;;;-9.51;100.00;101228.83;1726217;81;21569;-62
2022/01/24 06:08:26;;;;;;;11.22;5.67;;;;;;;-9.50;100.00;101239.75;1735091;82;20131;-62
2022/01/24 06:10:53;;;;;;;11.83;6.30;;;;;;;-9.52;100.00;101245.59;1741920;81;21031;-62
2022/01/24 06:13:22;;;;;;;13.48;6.78;;;;;;;-9.50;100.00;101244.55;1742101;82;21012;-62
2022/01/24 06:15:48;;;;;;;13.22;6.00;;;;;;;-9.42;100.00;101247.47;1725214;82;21023;-63
2022/01/24 06:18:14;;;;;;;16.02;7.47;;;;;;;-9.34;100.00;101235.91;1728576;82;21569;-62
2022/01/24 06:20:41;;;;;;;14.90;6.80;;;;;;;-9.32;100.00;101245.05;1727011;82;21670;-62
2022/01/24 06:23:07;;;;;;;19.17;8.80;;;;;;;-9.29;100.00;101247.47;1722072;82;21585;-62
2022/01/24 06:25:34;;;;;;;17.42;7.95;;;;;;;-9.25;100.00;101247.15;1661167;86;21074;-62
2022/01/24 06:28:00;;;;;;;17.67;7.37;;;;;;;-9.18;100.00;101231.25;1703996;82;21058;-62
2022/01/24 06:30:27;;;;;;;13.03;6.83;;;;;;;-9.14;100.00;101235.83;1732009;82;21011;-62
2022/01/24 06:32:53;;;;;;;13.48;6.80;;;;;;;-9.09;100.00;101225.77;1661605;85;21612;-61
2022/01/24 06:35:20;;;;;;;10.45;5.03;;;;;;;-9.05;100.00;101226.40;1695255;85;21637;-63
2022/01/24 06:37:46;;;;;;;14.38;6.78;;;;;;;-8.98;100.00;101225.85;1713860;82;21570;-62
2022/01/24 06:40:12;;;;;;;14.23;8.00;;;;;;;-8.98;100.00;101225.85;1705409;82;21554;-62
2022/01/24 06:42:39;;;;;;;14.28;7.58;;;;;;;-8.89;100.00;101230.45;1677494;85;21603;-62
2022/01/24 06:45:48;;;;;;;19.60;8.03;;;;;;;-8.80;100.00;101224.52;1813321;79;22872;-62
2022/01/24 06:48:14;;;;;;;14.18;6.87;;;;;;;-8.82;100.00;101229.05;1752430;82;20977;-61
2022/01/24 06:50:41;;;;;;;15.15;8.33;;;;;;;-8.78;100.00;101233.63;1750768;81;20963;-61
2022/01/24 06:53:07;;;;;;;15.38;7.47;;;;;;;-8.71;100.00;101237.50;1753421;82;21019;-61
2022/01/24 06:55:34;;;;;;;17.37;7.83;;;;;;;-8.70;100.00;101230.80;1752946;82;20999;-62
2022/01/24 06:58:00;;;;;;;15.98;8.60;;;;;;;-8.63;100.00;101228.08;1728782;81;21018;-62
2022/01/24 07:00:29;;;;;;;17.05;8.90;;;;;;;-8.57;100.00;101231.23;1751277;82;21003;-60
2022/01/24 07:02:56;;;;;;;20.45;10.18;;;;;;;-8.51;100.00;101236.05;1742839;82;21011;-61
2022/01/24 07:05:24;;;;;;;16.30;8.25;;;;;;;-8.43;100.00;101241.62;1748800;82;20979;-61
2022/01/24 07:07:50;;;;;;;19.92;9.83;;;;;;;-8.36;100.00;101241.02;1745217;82;21050;-61
2022/01/24 07:10:17;;;;;;;19.02;9.05;;;;;;;-8.28;100.00;101232.52;1737264;82;21102;-60
2022/01/24 07:12:46;;;;;;;17.73;9.85;;;;;;;-8.23;100.00;101243.09;1729821;82;21059;-60
2022/01/24 07:15:15;;;;;;;17.60;9.60;;;;;;;-8.22;100.00;101245.27;1734821;82;21577;-60
2022/01/24 07:18:14;;;;;;;15.45;8.55;;;;;;;-8.17;100.00;101243.95;1736401;82;21046;-61
2022/01/24 07:20:26;;;;;;;16.15;8.33;;;;;;;-8.10;100.00;101258.85;1663807;85;21106;-61
2022/01/24 07:22:52;;;;;;;17.80;9.23;;;;;;;-8.09;100.00;101253.94;1684700;84;21513;-61
2022/01/24 07:25:21;;;;;;;18.75;9.00;;;;;;;-8.04;100.00;101253.09;1700556;84;21055;-61
2022/01/24 07:27:48;;;;;;;20.12;9.90;;;;;;;-8.01;100.00;101246.76;1708063;84;21563;-62
2022/01/24 07:30:15;;;;;;;;;;;;;;;-7.97;100.00;101241.61;1687674;84;21561;-62
2022/01/24 07:32:41;;;;;;;14.47;7.03;;;;;;;-7.98;100.00;101226.70;1706979;84;20491;-61
2022/01/24 07:35:08;;;;;;;14.10;7.83;;;;;;;-7.87;100.00;101246.08;1707053;84;21553;-60
2022/01/24 07:37:35;;;;;;;21.02;9.73;;;;;;;-7.80;100.00;101238.04;1664810;84;21089;-60
2022/01/24 07:40:05;;;;;;;20.27;9.70;;;;;;;-7.74;100.00;101244.17;1686197;84;21098;-62
2022/01/24 07:43:32;;;;;;;21.52;10.18;;;;;;;-7.70;100.00;101243.45;1678348;85;21075;-62
2022/01/24 07:45:09;;;;;;;;;;;;;;;-7.61;100.00;101243.57;1681736;84;21568;-60
2022/01/24 07:47:35;;;;;;;25.95;11.63;;;;;;;-7.58;100.00;101243.84;1669024;85;20105;-61
2022/01/24 07:50:02;;;;;;;19.48;9.85;;;;;;;-7.65;100.00;101243.44;1696403;84;21092;-61
2022/01/24 07:52:28;;;;;;;18.92;9.40;;;;;;;-7.64;100.00;101241.17;1672111;84;21106;-61
2022/01/24 07:54:55;;;;;;;;;;;;;;;-7.59;100.00;101236.38;1687696;85;21074;-61
2022/01/24 07:57:21;;;;;;;19.15;9.08;;;;;;;-7.54;100.00;101233.35;1714845;83;20140;-62
2022/01/24 07:59:48;;;;;;;16.17;9.15;;;;;;;-7.54;100.00;101224.09;1706603;84;20995;-61
2022/01/24 08:02:14;;;;;;;14.95;7.97;;;;;;;-7.50;100.00;101222.05;1705580;84;21082;-61
2022/01/24 08:04:41;;;;;;;20.48;9.18;;;;;;;-7.47;100.00;101221.33;1706696;84;21558;-62
2022/01/24 08:07:09;;;;;;;19.23;9.38;;;;;;;-7.39;100.00;101228.19;1704275;84;21625;-61
2022/01/24 11:08:50;;;;;;;29.42;14.20;;;;;;;-5.47;100.00;101085.64;1801190;78;22986;-63
2022/01/24 11:11:17;;;;;;;19.48;9.43;;;;;;;-5.29;100.00;101080.03;1737524;81;21003;-64
2022/01/24 11:13:46;;;;;;;23.20;11.80;;;;;;;-4.98;100.00;101082.07;1708036;82;21070;-64
2022/01/24 11:16:16;;;;;;;24.82;13.30;;;;;;;-4.81;100.00;101080.88;1724396;82;21122;-66
2022/01/24 11:18:42;;;;;;;23.35;12.63;;;;;;;-4.66;100.00;101066.20;1733820;82;21054;-64
2022/01/24 11:21:13;;;;;;;19.77;11.50;;;;;;;-4.46;100.00;101064.85;1724710;83;21038;-65
2022/01/24 11:23:40;;;;;;;19.20;11.33;;;;;;;-4.21;100.00;101057.55;1726049;82;20998;-65
2022/01/24 11:26:05;;;;;;;19.15;10.60;;;;;;;-4.14;100.00;101067.95;1728939;82;21572;-65
2022/01/24 11:28:34;;;;;;;17.77;9.85;;;;;;;-4.05;100.00;101060.45;1743178;82;20975;-65
2022/01/24 11:31:06;;;;;;;18.62;9.73;;;;;;;-3.93;100.00;101060.59;1739898;82;21063;-65
2022/01/24 11:33:36;;;;;;;16.97;9.88;;;;;;;-3.89;100.00;101071.78;1720517;82;21057;-65
2022/01/24 11:36:05;;;;;;;22.17;10.82;;;;;;;-3.91;100.00;101066.63;1736332;81;21553;-65
2022/01/24 11:38:42;;;;;;;17.85;10.48;;;;;;;-3.95;100.00;101065.23;1749696;82;20987;-64
2022/01/24 11:41:24;;;;;;;18.90;9.98;;;;;;;-3.94;100.00;101064.27;1746421;82;21556;-65
2022/01/24 11:43:59;;;;;;;16.62;10.00;;;;;;;-3.85;100.00;101057.20;1731393;82;21057;-64
2022/01/24 11:46:55;;;;;;;16.77;9.55;;;;;;;-3.89;100.00;101063.80;1731630;81;21078;-63
2022/01/24 11:49:31;;;;;;;17.67;9.58;;;;;;;-3.89;100.00;101060.66;1731504;83;20971;-64
2022/01/24 11:52:11;;;;;;;16.95;9.80;;;;;;;-3.89;100.00;101051.34;1729044;80;21102;-64
2022/01/24 11:55:02;;;;;;;19.02;10.08;;;;;;;-3.87;100.00;101050.72;1707195;82;20975;-65
2022/01/24 11:57:39;;;;;;;15.75;9.63;;;;;;;-3.76;100.00;101054.52;1737682;82;21549;-64
2022/01/24 12:00:11;;;;;;;14.83;8.30;;;;;;;-3.69;100.00;101050.77;1727884;82;21412;-64
2022/01/24 12:02:45;;;;;;;18.12;10.10;;;;;;;-3.74;100.00;101047.22;1726211;82;21491;-64
2022/01/24 12:05:21;;;;;;;16.32;9.18;;;;;;;-3.74;100.00;101043.22;1734381;82;21442;-65
2022/01/24 12:07:51;;;;;;;14.75;7.70;;;;;;;-3.55;100.00;101056.92;1735745;82;21568;-65
2022/01/24 12:10:37;;;;;;;11.70;6.92;;;;;;;-3.04;100.00;101038.96;1707362;82;21546;-65
2022/01/24 12:13:27;;;;;;;;;;;;;;;-2.71;100.00;101041.42;1717534;82;21039;-66
2022/01/24 12:15:57;;;;;;;10.40;5.25;;;;;;;-2.96;100.00;101034.20;1720847;83;20119;-65
2022/01/24 12:18:33;;;;;;;11.05;6.70;;;;;;;-3.36;100.00;101035.48;1722194;83;21051;-66
2022/01/24 12:21:16;;;;;;;11.57;6.12;;;;;;;-3.59;100.00;101031.10;1702027;82;21059;-66
2022/01/24 12:24:00;;;;;;;11.83;7.10;;;;;;;-3.63;100.00;101031.54;1738186;82;21125;-65
2022/01/24 12:26:34;;;;;;;10.93;6.87;;;;;;;-3.74;100.00;101037.91;1738268;81;21543;-66
2022/01/24 12:29:13;;;;;;;13.60;7.62;;;;;;;-3.78;100.00;101033.02;1728922;82;21035;-65
2022/01/24 12:31:50;;;;;;;11.55;6.20;;;;;;;-3.80;100.00;101037.17;1714499;82;21019;-66
2022/01/24 12:34:39;;;;;;;10.70;6.28;;;;;;;-3.77;100.00;101023.56;1735258;82;20984;-66
2022/01/24 12:37:12;;;;;;;11.43;5.55;;;;;;;-3.79;100.00;101026.05;1721047;82;21157;-64
2022/01/24 12:39:51;;;;;;;10.18;6.65;;;;;;;-3.80;100.00;101033.18;1715494;82;21393;-65
2022/01/24 12:48:17;;;;;;;12.20;6.30;;;;;;;-3.78;100.00;101031.69;1669675;85;21117;-65
2022/01/24 12:50:46;;;;;;;10.60;6.58;;;;;;;-3.78;100.00;101037.85;1629773;87;21054;-65
2022/01/24 12:53:14;;;;;;;12.75;6.30;;;;;;;-3.75;100.00;101032.23;1659952;84;21062;-64
2022/01/24 12:55:43;;;;;;;10.85;6.80;;;;;;;-3.75;100.00;101028.72;1722429;82;21028;-65
2022/01/24 12:58:09;;;;;;;11.75;6.62;;;;;;;-3.80;100.00;101038.99;1723818;82;20975;-65
2022/01/24 13:00:40;;;;;;;13.45;6.62;;;;;;;-3.82;100.00;101033.80;1723884;82;20999;-65
2022/01/24 13:03:04;;;;;;;11.78;6.60;;;;;;;-3.83;100.00;101037.96;1719788;83;21557;-64
2022/01/24 13:05:36;;;;;;;12.55;7.30;;;;;;;-3.82;100.00;101040.95;1724343;82;21584;-63
2022/01/24 13:08:03;;;;;;;12.13;6.75;;;;;;;-3.83;100.00;101041.95;1709431;83;20992;-63
2022/01/24 13:10:31;;;;;;;10.85;6.58;;;;;;;-3.85;100.00;101046.56;1667098;85;21090;-63
2022/01/24 13:13:05;;;;;;;13.62;6.50;;;;;;;-3.93;100.00;101049.14;1670858;85;21406;-63
2022/01/24 13:21:22;;;;;;;13.25;6.95;;;;;;;-4.09;100.00;101056.41;1704771;82;21653;-64
2022/01/24 13:23:57;;;;;;;11.45;6.72;;;;;;;-4.10;100.00;101044.08;1682901;85;21066;-64
2022/01/24 13:26:22;;;;;;;11.93;6.03;;;;;;;-4.15;100.00;101035.72;1716035;83;21118;-63
2022/01/24 13:28:48;;;;;;;11.45;6.25;;;;;;;-4.13;100.00;101044.38;1681019;84;21478;-63
2022/01/24 13:31:15;;;;;;;13.22;6.80;;;;;;;-4.13;100.00;101051.02;1730767;81;21079;-64
2022/01/24 13:33:46;;;;;;;14.00;7.35;;;;;;;-4.11;100.00;101055.73;1737770;82;21518;-63
2022/01/24 13:36:11;;;;;;;16.55;7.65;;;;;;;-4.10;100.00;101052.06;1737756;81;21024;-63
2022/01/24 13:38:45;;;;;;;12.88;7.58;;;;;;;-4.09;100.00;101059.06;1721222;82;21083;-64
2022/01/24 13:41:15;;;;;;;15.23;7.67;;;;;;;-4.11;100.00;101070.35;1717334;81;21059;-64
2022/01/24 13:43:53;;;;;;;13.90;7.80;;;;;;;-4.12;100.00;101065.52;1737656;82;21027;-63
2022/01/24 13:46:26;;;;;;;15.10;7.97;;;;;;;-4.13;100.00;101065.16;1720512;81;21047;-63
2022/01/24 13:49:11;;;;;;;11.90;7.00;;;;;;;-4.14;100.00;101064.81;1697184;82;21051;-64
2022/01/24 13:51:49;;;;;;;18.35;8.38;;;;;;;-4.15;100.00;101062.31;1725074;81;21124;-64
2022/01/24 13:54:26;;;;;;;;;;;;;;;-4.12;100.00;101063.34;1745211;82;21042;-63
2022/01/24 13:57:04;;;;;;;13.15;7.03;;;;;;;-4.10;100.00;101058.70;1742661;81;20453;-63
2022/01/24 13:59:32;;;;;;;12.45;6.83;;;;;;;-4.14;100.00;101063.48;1708682;82;21035;-64
2022/01/24 14:02:16;;;;;;;12.68;6.83;;;;;;;-4.13;100.00;101069.16;1717103;82;21031;-63
2022/01/24 14:04:49;;;;;;;12.75;6.22;;;;;;;-4.12;100.00;101062.02;1719286;82;21437;-63
2022/01/24 14:07:41;;;;;;;12.73;6.60;;;;;;;-4.16;100.00;101068.12;1726828;82;21699;-64
2022/01/24 14:10:07;;;;;;;11.00;5.45;;;;;;;-4.17;100.00;101059.78;1715805;82;21006;-64
2022/01/24 14:12:54;;;;;;;10.20;6.03;;;;;;;-4.22;100.00;101063.87;1713437;82;20957;-63
2022/01/24 14:15:39;;;;;;;11.10;5.97;;;;;;;-4.30;100.00;101069.06;1692923;82;21102;-63
2022/01/24 14:20:34;;;;;;;11.75;5.90;;;;;;;-4.38;100.00;101072.44;1703965;82;21118;-63
2022/01/24 14:23:03;;;;;;;11.95;6.65;;;;;;;-4.39;100.00;101069.94;1707867;83;21067;-64
2022/01/24 14:25:32;;;;;;;11.50;6.08;;;;;;;-4.49;100.00;101060.64;1711691;83;21011;-64
2022/01/24 14:28:09;;;;;;;11.97;6.28;;;;;;;-4.54;100.00;101061.09;1679005;85;21490;-63
2022/01/24 14:30:41;;;;;;;10.32;5.70;;;;;;;-4.59;100.00;101060.66;1696137;82;21541;-64
2022/01/24 14:33:23;;;;;;;11.45;5.80;;;;;;;-4.61;100.00;101065.78;1715577;82;21043;-63
2022/01/24 14:36:13;;;;;;;9.65;5.37;;;;;;;-4.63;100.00;101069.05;1735115;81;21533;-64
2022/01/24 14:38:47;;;;;;;10.45;5.28;;;;;;;-4.69;100.00;101079.77;1687598;84;21102;-63
2022/01/24 14:41:28;;;;;;;11.22;6.00;;;;;;;-4.73;100.00;101074.38;1712881;82;21617;-63
2022/01/24 14:46:41;;;;;;;10.35;5.35;;;;;;;-4.81;100.00;101076.90;1722959;82;21683;-63
2022/01/24 14:49:13;;;;;;;15.78;8.13;;;;;;;-4.83;100.00;101077.54;1717467;83;21099;-64
2022/01/24 14:51:43;;;;;;;12.82;5.97;;;;;;;-4.84;100.00;101081.17;1717688;83;21047;-63
2022/01/24 14:54:16;;;;;;;11.22;6.00;;;;;;;-4.85;100.00;101082.14;1726956;82;21059;-63
2022/01/24 14:56:44;;;;;;;13.55;6.30;;;;;;;-4.83;100.00;101085.99;1718669;82;21054;-63
2022/01/24 14:59:11;;;;;;;12.20;6.78;;;;;;;-4.84;100.00;101076.34;1717462;83;21276;-63
2022/01/24 15:01:38;;;;;;;;;;;;;;;-4.85;100.00;101080.00;1720126;83;21032;-63
2022/01/24 15:04:05;;;;;;;15.72;7.25;;;;;;;-4.82;100.00;101090.34;1716492;83;20401;-64
2022/01/24 15:06:31;;;;;;;16.85;7.65;;;;;;;-4.84;100.00;101089.14;1717599;82;21071;-63
2022/01/24 15:08:59;;;;;;;;;;;;;;;-4.81;100.00;101081.37;1725130;82;21058;-63
2022/01/24 15:11:29;;;;;;;17.67;8.10;;;;;;;-4.80;100.00;101088.37;1710153;83;20390;-63
2022/01/24 15:14:02;;;;;;;16.55;8.35;;;;;;;-4.84;100.00;101080.33;1725315;82;21031;-63
2022/01/24 15:16:40;;;;;;;14.58;7.83;;;;;;;-4.84;100.00;101086.97;1723030;83;21538;-63
2022/01/24 15:24:31;;;;;;;12.60;6.40;;;;;;;-4.76;100.00;101092.42;1730113;82;21538;-62
2022/01/24 15:26:54;;;;;;;13.93;6.45;;;;;;;-4.77;100.00;101090.25;1724913;83;21050;-63
2022/01/24 15:29:21;;;;;;;11.50;5.87;;;;;;;-4.81;100.00;101084.02;1725613;82;21059;-63
2022/01/24 15:31:47;;;;;;;11.88;5.92;;;;;;;-4.79;100.00;101084.26;1723627;82;20976;-62
2022/01/24 15:34:14;;;;;;;;;;;;;;;-4.81;100.00;101089.34;1728039;83;21561;-63
2022/01/24 15:36:42;;;;;;;13.00;6.60;;;;;;;-4.81;100.00;101084.02;1714509;81;20439;-63
2022/01/24 15:39:09;;;;;;;13.58;7.72;;;;;;;-4.84;100.00;101082.98;1721415;83;21136;-64
2022/01/24 15:41:45;;;;;;;;;;;;;;;-4.83;100.00;101080.20;1722405;83;21052;-63
2022/01/24 15:44:21;;;;;;;10.95;5.92;;;;;;;-4.82;100.00;101080.55;1716534;83;20434;-63
2022/01/24 15:46:49;;;;;;;11.45;5.17;;;;;;;-4.80;100.00;101085.22;1677565;85;20993;-63
2022/01/24 15:49:01;;;;;;;10.20;5.17;;;;;;;-4.78;100.00;101075.80;1677298;85;21019;-64
2022/01/24 15:51:27;;;;;;;9.85;5.55;;;;;;;-4.77;100.00;101073.47;1696198;83;21046;-64
2022/01/24 15:53:55;;;;;;;8.70;5.20;;;;;;;-4.83;100.00;101069.58;1695406;85;21699;-63
2022/01/24 15:58:51;;;;;;;10.32;6.10;;;;;;;-4.86;100.00;101061.89;1718231;82;21364;-63
2022/01/24 16:01:17;;;;;;;11.80;5.92;;;;;;;-4.88;100.00;101067.81;1725743;83;21689;-63
2022/01/24 16:03:45;;;;;;;9.70;5.70;;;;;;;-4.91;100.00;101062.78;1725957;83;21015;-63
2022/01/24 16:06:11;;;;;;;9.85;5.28;;;;;;;-4.91;100.00;101058.80;1726872;82;21078;-63
2022/01/24 16:08:37;;;;;;;10.23;5.90;;;;;;;-4.92;100.00;101052.32;1721860;81;21005;-64
2022/01/24 16:11:04;;;;;;;10.48;5.70;;;;;;;-4.95;100.00;101049.92;1716877;82;21092;-63
2022/01/24 16:13:31;;;;;;;13.25;6.70;;;;;;;-4.95;100.00;101060.05;1717028;82;21023;-64
2022/01/24 16:15:58;;;;;;;10.30;6.33;;;;;;;-4.99;100.00;101051.20;1719503;82;21101;-64
2022/01/24 16:18:26;;;;;;;11.43;5.58;;;;;;;-5.03;100.00;101051.45;1716832;82;20999;-64
2022/01/24 16:23:26;;;;;;;9.53;5.15;;;;;;;-5.11;100.00;101048.69;1719505;82;21056;-63
2022/01/24 16:25:54;;;;;;;10.40;5.28;;;;;;;-5.11;100.00;101054.00;1718721;81;21059;-64